createdAt,value
2018-06-18T00:01:34.069Z,99.22
2018-06-18T00:04:39.059Z,100.00
2018-06-18T00:07:43.358Z,99.06
2018-06-18T00:10:47.988Z,99.67
2018-06-18T00:13:52.658Z,99.38
2018-06-18T00:16:56.944Z,99.13
2018-06-18T00:20:01.520Z,100.00
2018-06-18T00:23:06.156Z,99.90
2018-06-18T00:26:10.467Z,99.54
2018-06-18T00:29:14.857Z,99.85
2018-06-18T00:32:19.474Z,99.70
2018-06-18T00:35:24.019Z,99.94
2018-06-18T00:38:28.518Z,99.99
2018-06-18T00:41:32.794Z,99.91
2018-06-18T00:44:37.865Z,99.66
2018-06-18T00:47:42.141Z,99.85
2018-06-18T00:50:46.450Z,99.67
2018-06-18T00:53:50.742Z,100.00
2018-06-18T00:56:55.065Z,100.00
2018-06-18T00:59:59.345Z,99.72
2018-06-18T01:03:03.915Z,99.32
2018-06-18T01:06:08.670Z,99.60
2018-06-18T01:09:13.477Z,99.61
2018-06-18T01:12:18.113Z,100.00
2018-06-18T01:15:22.630Z,99.82
2018-06-18T01:18:27.770Z,99.49
2018-06-18T01:21:32.041Z,99.12
2018-06-18T01:25:08.501Z,99.91
2018-06-18T01:28:12.924Z,99.54
2018-06-18T01:31:17.349Z,99.92
2018-06-18T01:34:26.809Z,99.83
2018-06-18T01:37:31.189Z,99.83
2018-06-18T01:40:35.520Z,99.65
2018-06-18T01:43:39.876Z,100.00
2018-06-18T01:46:44.373Z,99.96
2018-06-18T01:49:48.825Z,99.94
2018-06-18T01:52:53.130Z,99.83
2018-06-18T01:55:57.482Z,100.00
2018-06-18T01:59:01.812Z,99.64
2018-06-18T02:02:06.113Z,99.73
2018-06-18T02:05:10.419Z,100.00
2018-06-18T02:08:14.721Z,100.00
2018-06-18T02:11:19.003Z,99.61
2018-06-18T02:14:23.286Z,100.00
2018-06-18T02:17:27.552Z,99.93
2018-06-18T02:20:31.856Z,99.84
2018-06-18T02:23:36.609Z,100.00
2018-06-18T02:26:40.885Z,100.00
2018-06-18T02:29:51.536Z,100.00
2018-06-18T02:33:01.096Z,99.93
2018-06-18T02:36:10.504Z,99.76
2018-06-18T02:39:15.761Z,100.00
2018-06-18T02:42:20.054Z,100.00
2018-06-18T02:45:24.341Z,100.00
2018-06-18T02:48:28.626Z,100.00
2018-06-18T02:51:32.895Z,100.00
2018-06-18T02:54:37.241Z,100.00
2018-06-18T02:57:41.842Z,100.00
2018-06-18T03:00:46.147Z,100.00
2018-06-18T03:03:50.420Z,100.00
2018-06-18T03:06:54.694Z,100.00
2018-06-18T03:09:58.978Z,100.00
2018-06-18T03:13:03.510Z,100.00
2018-06-18T03:16:07.833Z,100.00
2018-06-18T03:19:17.844Z,100.00
2018-06-18T03:22:27.781Z,100.00
2018-06-18T03:25:37.504Z,100.00
2018-06-18T03:28:47.300Z,100.00
2018-06-18T03:31:53.735Z,99.96
2018-06-18T03:34:58.135Z,100.00
2018-06-18T03:38:03.237Z,100.00
2018-06-18T03:41:08.898Z,100.00
2018-06-18T03:44:19.076Z,100.00
2018-06-18T03:47:28.853Z,99.87
2018-06-18T03:50:33.385Z,100.00
2018-06-18T03:53:37.660Z,100.00
2018-06-18T03:56:42.472Z,100.00
2018-06-18T03:59:47.184Z,100.00
2018-06-18T04:03:00.660Z,100.00
2018-06-18T04:06:10.098Z,100.00
2018-06-18T04:09:19.822Z,100.00
2018-06-18T04:12:24.361Z,99.75
2018-06-18T04:15:28.769Z,99.13
2018-06-18T04:18:33.173Z,98.74
2018-06-18T04:21:37.453Z,98.99
2018-06-18T04:24:41.746Z,99.51
2018-06-18T04:27:46.442Z,98.79
2018-06-18T04:30:50.873Z,98.91
2018-06-18T04:34:06.064Z,99.00
2018-06-18T04:37:10.373Z,98.93
2018-06-18T04:40:14.657Z,98.01
2018-06-18T04:43:24.197Z,98.05
2018-06-18T04:46:33.952Z,98.07
2018-06-18T04:50:43.605Z,97.83
2018-06-18T04:53:48.302Z,95.61
2018-06-18T04:56:52.666Z,95.14
2018-06-18T05:01:11.955Z,93.92
2018-06-18T05:04:16.280Z,93.40
2018-06-18T05:07:22.806Z,93.50
2018-06-18T05:10:29.352Z,92.69
2018-06-18T05:13:33.917Z,92.70
2018-06-18T05:16:39.420Z,91.03
2018-06-18T05:19:43.753Z,90.62
2018-06-18T05:22:48.217Z,89.79
2018-06-18T05:26:01.129Z,87.30
2018-06-18T05:29:05.717Z,90.29
2018-06-18T05:32:11.095Z,90.36
2018-06-18T05:35:15.494Z,88.56
2018-06-18T05:38:30.734Z,89.57
2018-06-18T05:41:35.376Z,89.85
2018-06-18T05:44:41.353Z,89.64
2018-06-18T05:47:45.763Z,88.80
2018-06-18T05:50:50.911Z,87.56
2018-06-18T05:53:55.358Z,88.17
2018-06-18T05:56:59.769Z,88.33
2018-06-18T06:00:05.224Z,86.05
2018-06-18T06:03:09.889Z,82.82
2018-06-18T06:06:14.619Z,82.25
2018-06-18T06:09:18.957Z,82.45
2018-06-18T06:12:23.256Z,79.96
2018-06-18T06:15:27.652Z,80.81
2018-06-18T06:18:32.018Z,79.73
2018-06-18T06:21:36.501Z,79.21
2018-06-18T06:24:41.901Z,75.79
2018-06-18T06:27:46.465Z,68.88
2018-06-18T06:30:50.894Z,70.43
2018-06-18T06:33:55.202Z,72.90
2018-06-18T06:36:59.646Z,81.21
2018-06-18T06:40:04.026Z,79.52
2018-06-18T06:43:08.725Z,82.84
2018-06-18T06:46:13.048Z,83.16
2018-06-18T06:49:17.587Z,81.40
2018-06-18T06:52:21.930Z,79.89
2018-06-18T06:55:27.888Z,77.21
2018-06-18T06:58:32.508Z,74.90
2018-06-18T07:01:37.864Z,73.84
2018-06-18T07:04:42.484Z,75.22
2018-06-18T07:07:46.865Z,78.09
2018-06-18T07:10:51.200Z,73.77
2018-06-18T07:13:59.403Z,77.59
2018-06-18T07:17:03.891Z,74.96
2018-06-18T07:20:08.381Z,74.79
2018-06-18T07:23:12.900Z,76.23
2018-06-18T07:26:17.326Z,72.57
2018-06-18T07:29:22.442Z,77.56
2018-06-18T07:32:26.887Z,76.07
2018-06-18T07:35:31.233Z,76.28
2018-06-18T07:38:37.318Z,75.83
2018-06-18T07:41:41.952Z,73.92
2018-06-18T07:44:48.226Z,75.72
2018-06-18T07:47:53.937Z,73.22
2018-06-18T07:50:58.954Z,71.28
2018-06-18T07:54:04.106Z,77.21
2018-06-18T07:57:18.659Z,71.05
2018-06-18T08:00:30.026Z,70.12
2018-06-18T08:03:35.605Z,72.08
2018-06-18T08:07:01.868Z,73.06
2018-06-18T08:10:07.259Z,71.42
2018-06-18T08:13:13.934Z,67.38
2018-06-18T08:16:19.937Z,71.72
2018-06-18T08:19:24.414Z,69.07
2018-06-18T08:22:29.179Z,64.93
2018-06-18T08:25:36.581Z,61.52
2018-06-18T08:28:42.134Z,66.46
2018-06-18T08:37:08.891Z,69.82
2018-06-18T08:40:15.861Z,68.06
2018-06-18T08:46:55.835Z,64.66
2018-06-18T08:50:05.365Z,60.40
2018-06-18T08:53:16.395Z,66.83
2018-06-18T08:56:27.583Z,68.49
2018-06-18T08:59:37.426Z,68.65
2018-06-18T09:02:47.175Z,64.08
2018-06-18T09:06:02.525Z,65.00
2018-06-18T09:09:09.529Z,62.94
2018-06-18T09:12:13.930Z,61.73
2018-06-18T09:15:18.365Z,64.67
2018-06-18T09:18:23.278Z,64.05
2018-06-18T09:21:27.644Z,58.99
2018-06-18T09:24:34.710Z,57.22
2018-06-18T09:27:39.072Z,59.50
2018-06-18T09:30:43.435Z,61.13
2018-06-18T09:33:48.018Z,62.25
2018-06-18T09:36:52.421Z,61.08
2018-06-18T09:39:56.753Z,63.32
2018-06-18T09:43:01.182Z,63.29
2018-06-18T09:46:05.633Z,65.08
2018-06-18T09:49:15.829Z,61.29
2018-06-18T09:52:25.199Z,59.00
2018-06-18T09:55:35.009Z,59.64
2018-06-18T09:58:44.914Z,59.58
2018-06-18T10:01:49.957Z,58.86
2018-06-18T10:04:54.262Z,62.76
2018-06-18T10:07:58.627Z,61.67
2018-06-18T10:11:04.203Z,57.44
2018-06-18T10:14:12.111Z,56.83
2018-06-18T10:17:16.678Z,57.38
2018-06-18T10:20:21.044Z,59.42
2018-06-18T10:23:25.350Z,57.41
2018-06-18T10:26:29.852Z,56.83
2018-06-18T10:29:34.392Z,57.06
2018-06-18T10:32:44.028Z,57.72
2018-06-18T10:35:53.492Z,56.49
2018-06-18T10:39:03.309Z,54.27
2018-06-18T10:42:12.927Z,53.83
2018-06-18T10:45:17.601Z,59.08
2018-06-18T10:48:22.285Z,58.91
2018-06-18T10:51:27.383Z,60.08
2018-06-18T10:54:31.726Z,57.47
2018-06-18T10:57:36.649Z,57.59
2018-06-18T11:00:40.992Z,60.06
2018-06-18T11:03:45.328Z,57.88
2018-06-18T11:06:49.628Z,56.27
2018-06-18T11:09:54.155Z,57.46
2018-06-18T11:12:58.582Z,62.72
2018-06-18T11:16:03.242Z,56.72
2018-06-18T11:19:12.701Z,57.08
2018-06-18T11:22:18.636Z,55.15
2018-06-18T11:25:28.278Z,56.17
2018-06-18T11:28:32.431Z,56.19
2018-06-18T11:31:36.726Z,56.18
2018-06-18T11:34:41.039Z,56.48
2018-06-18T11:37:45.529Z,52.39
2018-06-18T11:40:50.145Z,54.93
2018-06-18T11:43:54.471Z,56.30
2018-06-18T11:46:59.114Z,54.91
2018-06-18T11:50:03.529Z,56.85
2018-06-18T11:53:08.540Z,54.01
2018-06-18T11:56:12.894Z,56.10
2018-06-18T11:59:22.582Z,56.50
2018-06-18T12:02:32.448Z,56.92
2018-06-18T12:05:42.810Z,54.21
2018-06-18T12:08:53.497Z,52.56
2018-06-18T12:11:57.967Z,54.48
2018-06-18T12:15:02.447Z,56.08
2018-06-18T12:18:06.831Z,56.04
2018-06-18T12:21:11.280Z,53.87
2018-06-18T12:24:15.777Z,50.87
2018-06-18T12:27:25.674Z,53.38
2018-06-18T12:30:31.052Z,52.11
2018-06-18T12:33:36.042Z,53.35
2018-06-18T12:36:40.467Z,53.67
2018-06-18T12:39:47.540Z,52.90
2018-06-18T12:42:51.940Z,51.16
2018-06-18T12:46:01.898Z,52.74
2018-06-18T12:49:11.829Z,53.24
2018-06-18T12:52:21.753Z,54.63
2018-06-18T12:55:31.507Z,51.46
2018-06-18T12:58:35.925Z,51.38
2018-06-18T13:01:49.973Z,51.02
2018-06-18T13:04:57.957Z,52.02
2018-06-18T13:08:02.901Z,47.66
2018-06-18T13:11:07.480Z,51.40
2018-06-18T13:14:11.923Z,49.37
2018-06-18T13:17:17.096Z,49.44
2018-06-18T13:20:22.009Z,50.65
2018-06-18T13:23:26.490Z,52.31
2018-06-18T13:26:31.098Z,51.34
2018-06-18T13:29:35.542Z,53.71
2018-06-18T13:32:40.614Z,51.17
2018-06-18T13:35:45.725Z,47.46
2018-06-18T13:38:55.365Z,47.32
2018-06-18T13:42:06.600Z,50.51
2018-06-18T13:45:16.326Z,49.41
2018-06-18T13:48:24.849Z,49.42
2018-06-18T13:51:29.965Z,49.20
2018-06-18T13:54:34.661Z,50.38
2018-06-18T13:57:38.958Z,48.90
2018-06-18T14:00:43.452Z,49.92
2018-06-18T14:03:48.641Z,50.09
2018-06-18T14:06:53.337Z,51.54
2018-06-18T14:09:57.636Z,50.50
2018-06-18T14:13:02.245Z,50.75
2018-06-18T14:16:06.735Z,49.37
2018-06-18T14:19:16.130Z,48.63
2018-06-18T14:22:20.509Z,49.82
2018-06-18T14:25:25.208Z,50.24
2018-06-18T14:28:29.513Z,48.64
2018-06-18T14:31:39.120Z,48.88
2018-06-18T14:34:48.791Z,48.36
2018-06-18T14:37:58.445Z,49.29
2018-06-18T14:41:02.901Z,49.70
2018-06-18T14:44:07.408Z,49.53
2018-06-18T14:47:12.221Z,50.15
2018-06-18T14:50:16.761Z,49.28
2018-06-18T14:53:21.347Z,51.39
2018-06-18T14:56:31.027Z,51.45
2018-06-18T14:59:45.804Z,47.98
2018-06-18T15:02:50.369Z,46.28
2018-06-18T15:05:54.984Z,49.00
2018-06-18T15:09:00.531Z,49.14
2018-06-18T15:12:05.706Z,49.45
2018-06-18T15:15:15.485Z,49.37
2018-06-18T15:18:19.791Z,48.88
2018-06-18T15:21:24.311Z,51.69
2018-06-18T15:24:56.021Z,49.97
2018-06-18T15:28:00.490Z,49.74
2018-06-18T15:31:05.602Z,49.65
2018-06-18T15:34:10.409Z,50.00
2018-06-18T15:37:15.298Z,50.53
2018-06-18T15:40:20.839Z,49.81
2018-06-18T15:43:25.571Z,48.35
2018-06-18T15:46:30.129Z,51.58
2018-06-18T15:49:34.777Z,51.64
2018-06-18T15:52:39.805Z,50.80
2018-06-18T15:55:44.326Z,51.06
2018-06-18T15:58:48.920Z,52.15
2018-06-18T16:01:55.223Z,49.94
2018-06-18T16:04:59.720Z,50.79
2018-06-18T16:08:04.640Z,48.93
2018-06-18T16:11:08.856Z,51.02
2018-06-18T16:14:13.279Z,51.71
2018-06-18T16:17:18.020Z,49.27
2018-06-18T16:20:23.049Z,52.79
2018-06-18T16:23:27.569Z,51.93
2018-06-18T16:26:32.141Z,50.18
2018-06-18T16:29:36.929Z,51.59
2018-06-18T16:32:41.552Z,52.91
2018-06-18T16:35:46.101Z,53.75
2018-06-18T16:38:50.468Z,52.81
2018-06-18T16:41:55.482Z,54.33
2018-06-18T16:45:00.104Z,51.69
2018-06-18T16:48:05.013Z,48.05
2018-06-18T16:51:09.526Z,45.96
2018-06-18T16:54:14.161Z,47.81
2018-06-18T16:57:19.310Z,49.11
2018-06-18T17:00:23.865Z,47.34
2018-06-18T17:03:28.561Z,47.82
2018-06-18T17:06:32.985Z,48.82
2018-06-18T17:09:37.388Z,50.80
2018-06-18T17:12:42.122Z,49.06
2018-06-18T17:15:46.977Z,51.48
2018-06-18T17:18:51.686Z,52.43
2018-06-18T17:21:56.384Z,52.87
2018-06-18T17:25:00.715Z,52.54
2018-06-18T17:28:05.466Z,53.67
2018-06-18T17:31:10.556Z,53.90
2018-06-18T17:34:15.261Z,54.48
2018-06-18T17:37:19.624Z,53.76
2018-06-18T17:40:24.231Z,53.87
2018-06-18T17:43:29.193Z,51.99
2018-06-18T17:46:33.766Z,52.40
2018-06-18T17:49:38.496Z,53.45
2018-06-18T17:52:42.948Z,52.46
2018-06-18T17:55:47.739Z,54.01
2018-06-18T17:58:52.368Z,55.37
2018-06-18T18:01:56.875Z,54.37
2018-06-18T18:05:01.262Z,55.85
2018-06-18T18:08:06.000Z,54.09
2018-06-18T18:11:10.720Z,55.31
2018-06-18T18:14:15.891Z,55.76
2018-06-18T18:17:20.418Z,56.10
2018-06-18T18:20:25.712Z,55.98
2018-06-18T18:23:30.065Z,57.06
2018-06-18T18:26:34.485Z,57.94
2018-06-18T18:29:38.869Z,58.42
2018-06-18T18:32:43.199Z,59.21
2018-06-18T18:35:47.574Z,59.10
2018-06-18T18:38:51.891Z,58.90
2018-06-18T18:41:56.469Z,60.16
2018-06-18T18:45:01.132Z,60.91
2018-06-18T18:48:05.773Z,60.98
2018-06-18T18:51:10.288Z,61.59
2018-06-18T18:55:30.533Z,62.65
2018-06-18T18:59:50.302Z,65.02
2018-06-18T19:02:54.935Z,65.18
2018-06-18T19:06:00.372Z,65.97
2018-06-18T19:09:07.407Z,65.88
2018-06-18T19:12:11.810Z,66.10
2018-06-18T19:15:16.599Z,66.43
2018-06-18T19:18:21.034Z,66.66
2018-06-18T19:21:25.545Z,67.00
2018-06-18T19:24:29.936Z,67.86
2018-06-18T19:27:34.790Z,67.99
2018-06-18T19:30:42.083Z,68.41
2018-06-18T19:34:08.625Z,69.58
2018-06-18T19:37:14.345Z,70.26
2018-06-18T19:40:19.922Z,72.27
2018-06-18T19:43:24.221Z,72.41
2018-06-18T19:46:36.361Z,72.95
2018-06-18T19:49:41.378Z,74.12
2018-06-18T19:52:45.682Z,75.50
2018-06-18T19:55:51.197Z,75.38
2018-06-18T19:58:56.442Z,76.91
2018-06-18T20:02:00.790Z,77.62
2018-06-18T20:05:10.309Z,78.44
2018-06-18T20:08:21.024Z,77.70
2018-06-18T20:11:25.844Z,77.96
2018-06-18T20:14:30.317Z,78.94
2018-06-18T20:17:35.152Z,78.44
2018-06-18T20:20:39.823Z,78.89
2018-06-18T20:23:44.367Z,79.10
2018-06-18T20:26:49.439Z,79.01
2018-06-18T20:29:53.729Z,78.85
2018-06-18T20:32:58.038Z,78.84
2018-06-18T20:36:12.876Z,78.55
2018-06-18T20:39:17.246Z,78.71
2018-06-18T20:42:22.706Z,78.97
2018-06-18T20:45:27.818Z,79.75
2018-06-18T20:48:32.440Z,80.13
2018-06-18T20:51:36.777Z,80.31
2018-06-18T20:54:41.090Z,80.51
2018-06-18T20:57:48.377Z,80.51
2018-06-18T21:00:53.349Z,80.22
2018-06-18T21:03:59.426Z,81.16
2018-06-18T21:07:05.584Z,81.84
2018-06-18T21:10:09.624Z,81.64
2018-06-18T21:13:14.348Z,81.56
2018-06-18T21:16:20.185Z,81.45
2018-06-18T21:19:24.603Z,82.74
2018-06-18T21:22:29.138Z,82.41
2018-06-18T21:25:34.069Z,82.90
2018-06-18T21:28:40.334Z,82.70
2018-06-18T21:31:44.690Z,82.68
2018-06-18T21:34:49.196Z,82.82
2018-06-18T21:37:54.101Z,83.22
2018-06-18T21:40:58.458Z,82.45
2018-06-18T21:44:02.631Z,83.71
2018-06-18T21:47:07.005Z,83.61
2018-06-18T21:50:11.286Z,83.87
2018-06-18T21:53:15.603Z,84.12
2018-06-18T21:56:20.092Z,84.55
2018-06-18T21:59:24.431Z,84.01
2018-06-18T22:02:28.923Z,84.18
2018-06-18T22:05:33.130Z,83.62
2018-06-18T22:08:37.240Z,84.67
2018-06-18T22:11:43.023Z,84.17
2018-06-18T22:14:47.407Z,84.43
2018-06-18T22:17:51.812Z,84.29
2018-06-18T22:20:56.094Z,84.64
2018-06-18T22:24:00.420Z,84.51
2018-06-18T22:27:05.000Z,85.00
2018-06-18T22:30:09.333Z,85.25
2018-06-18T22:33:13.636Z,84.74
2018-06-18T22:36:17.942Z,85.32
2018-06-18T22:39:22.241Z,85.71
2018-06-18T22:42:26.618Z,85.30
2018-06-18T22:45:31.673Z,85.24
2018-06-18T22:48:36.054Z,85.96
2018-06-18T22:51:40.421Z,85.59
2018-06-18T22:54:48.122Z,86.09
2018-06-18T22:57:52.559Z,86.10
2018-06-18T23:00:59.912Z,85.91
2018-06-18T23:04:04.487Z,86.36
2018-06-18T23:07:09.120Z,85.73
2018-06-18T23:10:13.494Z,85.58
2018-06-18T23:13:21.768Z,85.20
2018-06-18T23:16:26.070Z,85.17
2018-06-18T23:19:31.338Z,85.16
2018-06-18T23:22:35.661Z,85.74
2018-06-18T23:25:40.035Z,85.30
2018-06-18T23:28:50.124Z,85.33
2018-06-18T23:31:54.482Z,85.26
2018-06-18T23:34:59.630Z,84.79
2018-06-18T23:38:03.978Z,85.16
2018-06-18T23:41:08.244Z,85.51
2018-06-18T23:44:12.556Z,85.12
2018-06-18T23:47:16.890Z,84.37
2018-06-18T23:50:21.384Z,84.27
2018-06-18T23:53:25.719Z,84.76
2018-06-18T23:56:30.365Z,84.34
2018-06-18T23:59:34.670Z,84.19
